sensor_id;sensor_type;location;lat;lon;timestamp;pressure;altitude;pressure_sealevel;temperature
61703;BMP280;47622;47.726;3.298;2023-06-14T00:01:45;98580.66;;;15.62
61703;BMP280;47622;47.726;3.298;2023-06-14T00:04:11;98576.94;;;15.63
61703;BMP280;47622;47.726;3.298;2023-06-14T00:06:38;98580.28;;;15.45
61703;BMP280;47622;47.726;3.298;2023-06-14T00:09:04;98575.69;;;15.42
61703;BMP280;47622;47.726;3.298;2023-06-14T00:11:31;98573.63;;;15.32
61703;BMP280;47622;47.726;3.298;2023-06-14T00:13:56;98571.34;;;15.14
61703;BMP280;47622;47.726;3.298;2023-06-14T00:16:23;98572.03;;;15.11
61703;BMP280;47622;47.726;3.298;2023-06-14T00:18:49;98561.84;;;14.94
61703;BMP280;47622;47.726;3.298;2023-06-14T00:21:17;98563.31;;;14.91
61703;BMP280;47622;47.726;3.298;2023-06-14T00:23:43;98569.81;;;14.78
61703;BMP280;47622;47.726;3.298;2023-06-14T00:26:08;98568.44;;;14.68
61703;BMP280;47622;47.726;3.298;2023-06-14T00:28:34;98562.72;;;14.66
61703;BMP280;47622;47.726;3.298;2023-06-14T00:30:59;98563.56;;;14.71
61703;BMP280;47622;47.726;3.298;2023-06-14T00:33:26;98561.72;;;14.55
61703;BMP280;47622;47.726;3.298;2023-06-14T00:35:51;98558.56;;;14.65
61703;BMP280;47622;47.726;3.298;2023-06-14T00:38:20;98558.81;;;14.60
61703;BMP280;47622;47.726;3.298;2023-06-14T00:40:46;98559.31;;;14.50
61703;BMP280;47622;47.726;3.298;2023-06-14T00:43:11;98566.09;;;14.51
61703;BMP280;47622;47.726;3.298;2023-06-14T00:45:37;98561.28;;;14.53
61703;BMP280;47622;47.726;3.298;2023-06-14T00:48:04;98565.97;;;14.44
61703;BMP280;47622;47.726;3.298;2023-06-14T00:50:31;98560.91;;;14.39
61703;BMP280;47622;47.726;3.298;2023-06-14T00:52:59;98560.78;;;14.32
61703;BMP280;47622;47.726;3.298;2023-06-14T00:55:26;98567.31;;;14.38
61703;BMP280;47622;47.726;3.298;2023-06-14T00:57:53;98570.34;;;14.40
61703;BMP280;47622;47.726;3.298;2023-06-14T01:00:19;98571.84;;;14.38
61703;BMP280;47622;47.726;3.298;2023-06-14T01:02:44;98574.84;;;14.24
61703;BMP280;47622;47.726;3.298;2023-06-14T01:05:10;98571.66;;;14.02
61703;BMP280;47622;47.726;3.298;2023-06-14T01:07:59;98577.22;;;14.13
61703;BMP280;47622;47.726;3.298;2023-06-14T01:10:51;98573.81;;;14.13
61703;BMP280;47622;47.726;3.298;2023-06-14T01:13:39;98566.81;;;13.89
61703;BMP280;47622;47.726;3.298;2023-06-14T01:16:07;98574.41;;;13.78
61703;BMP280;47622;47.726;3.298;2023-06-14T01:18:34;98568.66;;;13.88
61703;BMP280;47622;47.726;3.298;2023-06-14T01:21:00;98571.09;;;13.81
61703;BMP280;47622;47.726;3.298;2023-06-14T01:23:31;98572.63;;;13.82
61703;BMP280;47622;47.726;3.298;2023-06-14T01:25:59;98567.94;;;13.76
61703;BMP280;47622;47.726;3.298;2023-06-14T01:28:27;98571.13;;;13.69
61703;BMP280;47622;47.726;3.298;2023-06-14T01:31:00;98574.88;;;13.68
61703;BMP280;47622;47.726;3.298;2023-06-14T01:33:29;98576.34;;;13.93
61703;BMP280;47622;47.726;3.298;2023-06-14T01:35:56;98576.81;;;13.71
61703;BMP280;47622;47.726;3.298;2023-06-14T01:38:24;98568.31;;;13.62
61703;BMP280;47622;47.726;3.298;2023-06-14T01:40:52;98568.44;;;13.81
61703;BMP280;47622;47.726;3.298;2023-06-14T01:43:18;98568.88;;;13.83
61703;BMP280;47622;47.726;3.298;2023-06-14T01:45:46;98566.19;;;13.67
61703;BMP280;47622;47.726;3.298;2023-06-14T01:48:13;98559.94;;;13.60
61703;BMP280;47622;47.726;3.298;2023-06-14T01:50:38;98577.09;;;13.54
61703;BMP280;47622;47.726;3.298;2023-06-14T01:53:08;98578.63;;;13.55
61703;BMP280;47622;47.726;3.298;2023-06-14T01:55:34;98572.69;;;13.58
61703;BMP280;47622;47.726;3.298;2023-06-14T01:58:03;98577.44;;;13.40
61703;BMP280;47622;47.726;3.298;2023-06-14T02:00:29;98580.22;;;13.31
61703;BMP280;47622;47.726;3.298;2023-06-14T02:02:54;98579.31;;;13.27
61703;BMP280;47622;47.726;3.298;2023-06-14T02:05:21;98577.00;;;13.26
61703;BMP280;47622;47.726;3.298;2023-06-14T02:07:46;98578.00;;;13.33
61703;BMP280;47622;47.726;3.298;2023-06-14T02:10:13;98575.81;;;13.35
61703;BMP280;47622;47.726;3.298;2023-06-14T02:12:39;98580.63;;;13.33
61703;BMP280;47622;47.726;3.298;2023-06-14T02:15:05;98578.00;;;13.33
61703;BMP280;47622;47.726;3.298;2023-06-14T02:17:32;98576.47;;;13.32
61703;BMP280;47622;47.726;3.298;2023-06-14T02:19:58;98568.78;;;13.27
61703;BMP280;47622;47.726;3.298;2023-06-14T02:22:24;98571.75;;;13.26
61703;BMP280;47622;47.726;3.298;2023-06-14T02:24:49;98577.78;;;13.26
61703;BMP280;47622;47.726;3.298;2023-06-14T02:27:15;98578.22;;;13.28
61703;BMP280;47622;47.726;3.298;2023-06-14T02:29:41;98579.22;;;13.24
61703;BMP280;47622;47.726;3.298;2023-06-14T02:32:06;98574.06;;;13.15
61703;BMP280;47622;47.726;3.298;2023-06-14T02:34:35;98574.19;;;12.94
61703;BMP280;47622;47.726;3.298;2023-06-14T02:37:02;98577.03;;;12.89
61703;BMP280;47622;47.726;3.298;2023-06-14T02:39:30;98566.19;;;12.91
61703;BMP280;47622;47.726;3.298;2023-06-14T02:41:56;98566.59;;;12.80
61703;BMP280;47622;47.726;3.298;2023-06-14T02:44:25;98573.16;;;12.74
61703;BMP280;47622;47.726;3.298;2023-06-14T02:46:53;98568.44;;;12.68
61703;BMP280;47622;47.726;3.298;2023-06-14T02:49:21;98565.38;;;12.66
61703;BMP280;47622;47.726;3.298;2023-06-14T02:51:47;98574.22;;;12.49
61703;BMP280;47622;47.726;3.298;2023-06-14T02:54:13;98576.28;;;12.43
61703;BMP280;47622;47.726;3.298;2023-06-14T02:56:38;98576.84;;;12.49
61703;BMP280;47622;47.726;3.298;2023-06-14T02:59:04;98573.22;;;12.41
61703;BMP280;47622;47.726;3.298;2023-06-14T03:01:30;98571.47;;;12.45
61703;BMP280;47622;47.726;3.298;2023-06-14T03:04:01;98576.84;;;12.49
61703;BMP280;47622;47.726;3.298;2023-06-14T03:06:28;98578.59;;;12.45
61703;BMP280;47622;47.726;3.298;2023-06-14T03:08:56;98574.66;;;12.51
61703;BMP280;47622;47.726;3.298;2023-06-14T03:11:25;98576.63;;;12.54
61703;BMP280;47622;47.726;3.298;2023-06-14T03:13:52;98586.16;;;12.59
61703;BMP280;47622;47.726;3.298;2023-06-14T03:16:18;98584.66;;;12.58
61703;BMP280;47622;47.726;3.298;2023-06-14T03:18:50;98583.00;;;12.65
61703;BMP280;47622;47.726;3.298;2023-06-14T03:21:16;98580.38;;;12.65
61703;BMP280;47622;47.726;3.298;2023-06-14T03:23:43;98584.84;;;12.53
61703;BMP280;47622;47.726;3.298;2023-06-14T03:26:09;98587.75;;;12.39
61703;BMP280;47622;47.726;3.298;2023-06-14T03:28:38;98589.31;;;12.40
61703;BMP280;47622;47.726;3.298;2023-06-14T03:31:05;98597.66;;;12.42
61703;BMP280;47622;47.726;3.298;2023-06-14T03:33:32;98599.38;;;12.38
61703;BMP280;47622;47.726;3.298;2023-06-14T03:35:58;98611.25;;;12.44
61703;BMP280;47622;47.726;3.298;2023-06-14T03:38:23;98607.25;;;12.38
61703;BMP280;47622;47.726;3.298;2023-06-14T03:40:49;98612.28;;;12.31
61703;BMP280;47622;47.726;3.298;2023-06-14T03:43:14;98610.78;;;12.30
61703;BMP280;47622;47.726;3.298;2023-06-14T03:45:41;98616.31;;;12.28
61703;BMP280;47622;47.726;3.298;2023-06-14T03:48:06;98610.09;;;12.33
61703;BMP280;47622;47.726;3.298;2023-06-14T03:50:34;98611.00;;;12.16
61703;BMP280;47622;47.726;3.298;2023-06-14T03:53:00;98620.13;;;12.18
61703;BMP280;47622;47.726;3.298;2023-06-14T03:55:26;98622.00;;;12.18
61703;BMP280;47622;47.726;3.298;2023-06-14T03:57:53;98617.97;;;12.00
61703;BMP280;47622;47.726;3.298;2023-06-14T04:00:18;98610.75;;;11.88
61703;BMP280;47622;47.726;3.298;2023-06-14T04:02:45;98615.38;;;11.91
61703;BMP280;47622;47.726;3.298;2023-06-14T04:05:11;98616.16;;;11.71
61703;BMP280;47622;47.726;3.298;2023-06-14T04:07:36;98623.19;;;11.79
61703;BMP280;47622;47.726;3.298;2023-06-14T04:10:06;98620.00;;;11.94
61703;BMP280;47622;47.726;3.298;2023-06-14T04:12:33;98624.25;;;12.07
61703;BMP280;47622;47.726;3.298;2023-06-14T04:14:59;98620.00;;;12.15
61703;BMP280;47622;47.726;3.298;2023-06-14T04:17:26;98630.53;;;12.15
61703;BMP280;47622;47.726;3.298;2023-06-14T04:19:51;98625.13;;;12.11
61703;BMP280;47622;47.726;3.298;2023-06-14T04:22:17;98641.84;;;12.28
61703;BMP280;47622;47.726;3.298;2023-06-14T04:24:43;98635.16;;;12.30
61703;BMP280;47622;47.726;3.298;2023-06-14T04:27:10;98637.28;;;12.37
61703;BMP280;47622;47.726;3.298;2023-06-14T04:29:35;98647.28;;;12.43
61703;BMP280;47622;47.726;3.298;2023-06-14T04:32:01;98644.81;;;12.59
61703;BMP280;47622;47.726;3.298;2023-06-14T04:34:27;98644.19;;;12.62
61703;BMP280;47622;47.726;3.298;2023-06-14T04:36:58;98648.63;;;12.49
61703;BMP280;47622;47.726;3.298;2023-06-14T04:39:25;98647.03;;;12.57
61703;BMP280;47622;47.726;3.298;2023-06-14T04:41:53;98653.38;;;12.68
61703;BMP280;47622;47.726;3.298;2023-06-14T04:44:25;98645.28;;;12.73
61703;BMP280;47622;47.726;3.298;2023-06-14T04:46:56;98652.78;;;12.84
61703;BMP280;47622;47.726;3.298;2023-06-14T04:49:22;98649.19;;;13.00
61703;BMP280;47622;47.726;3.298;2023-06-14T04:51:48;98657.84;;;12.89
61703;BMP280;47622;47.726;3.298;2023-06-14T04:54:23;98655.00;;;12.94
61703;BMP280;47622;47.726;3.298;2023-06-14T04:56:50;98664.84;;;12.97
61703;BMP280;47622;47.726;3.298;2023-06-14T04:59:17;98656.22;;;13.08
61703;BMP280;47622;47.726;3.298;2023-06-14T05:01:43;98652.38;;;13.18
61703;BMP280;47622;47.726;3.298;2023-06-14T05:04:14;98655.91;;;13.22
61703;BMP280;47622;47.726;3.298;2023-06-14T05:06:44;98656.56;;;13.31
61703;BMP280;47622;47.726;3.298;2023-06-14T05:09:15;98647.78;;;13.52
61703;BMP280;47622;47.726;3.298;2023-06-14T05:11:42;98658.09;;;13.69
61703;BMP280;47622;47.726;3.298;2023-06-14T05:14:10;98660.91;;;13.88
61703;BMP280;47622;47.726;3.298;2023-06-14T05:16:36;98662.03;;;14.03
61703;BMP280;47622;47.726;3.298;2023-06-14T05:19:02;98666.09;;;14.13
61703;BMP280;47622;47.726;3.298;2023-06-14T05:21:30;98660.69;;;14.21
61703;BMP280;47622;47.726;3.298;2023-06-14T05:23:57;98673.00;;;14.45
61703;BMP280;47622;47.726;3.298;2023-06-14T05:26:22;98674.25;;;14.63
61703;BMP280;47622;47.726;3.298;2023-06-14T05:28:57;98669.50;;;14.85
61703;BMP280;47622;47.726;3.298;2023-06-14T05:31:24;98674.09;;;15.04
61703;BMP280;47622;47.726;3.298;2023-06-14T05:33:51;98678.00;;;15.25
61703;BMP280;47622;47.726;3.298;2023-06-14T05:36:17;98673.19;;;15.47
61703;BMP280;47622;47.726;3.298;2023-06-14T05:38:43;98675.88;;;15.66
61703;BMP280;47622;47.726;3.298;2023-06-14T05:41:09;98678.72;;;15.92
61703;BMP280;47622;47.726;3.298;2023-06-14T05:43:34;98680.72;;;16.18
61703;BMP280;47622;47.726;3.298;2023-06-14T05:46:00;98681.13;;;16.40
61703;BMP280;47622;47.726;3.298;2023-06-14T05:48:25;98686.81;;;16.61
61703;BMP280;47622;47.726;3.298;2023-06-14T05:50:51;98690.25;;;16.88
61703;BMP280;47622;47.726;3.298;2023-06-14T05:53:16;98690.97;;;17.08
61703;BMP280;47622;47.726;3.298;2023-06-14T05:55:42;98697.03;;;17.35
61703;BMP280;47622;47.726;3.298;2023-06-14T05:58:07;98693.56;;;17.57
61703;BMP280;47622;47.726;3.298;2023-06-14T06:00:33;98699.81;;;17.72
61703;BMP280;47622;47.726;3.298;2023-06-14T06:03:00;98702.97;;;17.81
61703;BMP280;47622;47.726;3.298;2023-06-14T06:05:26;98696.72;;;18.00
61703;BMP280;47622;47.726;3.298;2023-06-14T06:07:51;98701.91;;;18.22
61703;BMP280;47622;47.726;3.298;2023-06-14T06:10:17;98706.81;;;18.57
61703;BMP280;47622;47.726;3.298;2023-06-14T06:12:43;98711.22;;;18.87
61703;BMP280;47622;47.726;3.298;2023-06-14T06:15:09;98711.19;;;19.35
61703;BMP280;47622;47.726;3.298;2023-06-14T06:17:38;98710.38;;;20.10
61703;BMP280;47622;47.726;3.298;2023-06-14T06:20:04;98718.41;;;20.53
61703;BMP280;47622;47.726;3.298;2023-06-14T06:22:31;98727.53;;;20.55
61703;BMP280;47622;47.726;3.298;2023-06-14T06:24:57;98732.13;;;20.87
61703;BMP280;47622;47.726;3.298;2023-06-14T06:27:22;98731.72;;;22.11
61703;BMP280;47622;47.726;3.298;2023-06-14T06:29:48;98752.38;;;24.72
61703;BMP280;47622;47.726;3.298;2023-06-14T06:32:15;98750.28;;;26.43
61703;BMP280;47622;47.726;3.298;2023-06-14T06:34:41;98768.69;;;28.98
61703;BMP280;47622;47.726;3.298;2023-06-14T06:37:06;98774.22;;;31.20
61703;BMP280;47622;47.726;3.298;2023-06-14T06:39:33;98790.19;;;32.08
61703;BMP280;47622;47.726;3.298;2023-06-14T06:41:58;98800.75;;;33.03
61703;BMP280;47622;47.726;3.298;2023-06-14T06:44:24;98811.38;;;33.36
61703;BMP280;47622;47.726;3.298;2023-06-14T06:46:49;98805.81;;;32.51
61703;BMP280;47622;47.726;3.298;2023-06-14T06:49:15;98808.72;;;32.92
61703;BMP280;47622;47.726;3.298;2023-06-14T06:51:41;98811.25;;;32.51
61703;BMP280;47622;47.726;3.298;2023-06-14T06:54:10;98800.09;;;30.61
61703;BMP280;47622;47.726;3.298;2023-06-14T06:56:38;98807.47;;;30.51
61703;BMP280;47622;47.726;3.298;2023-06-14T06:59:04;98813.38;;;29.42
61703;BMP280;47622;47.726;3.298;2023-06-14T07:01:30;98805.50;;;28.83
61703;BMP280;47622;47.726;3.298;2023-06-14T07:03:57;98805.59;;;27.97
61703;BMP280;47622;47.726;3.298;2023-06-14T07:06:22;98810.00;;;27.12
61703;BMP280;47622;47.726;3.298;2023-06-14T07:08:52;98814.97;;;26.85
61703;BMP280;47622;47.726;3.298;2023-06-14T07:11:18;98809.06;;;26.61
61703;BMP280;47622;47.726;3.298;2023-06-14T07:13:43;98818.94;;;26.64
61703;BMP280;47622;47.726;3.298;2023-06-14T07:16:08;98825.22;;;27.60
61703;BMP280;47622;47.726;3.298;2023-06-14T07:18:34;98829.00;;;30.36
61703;BMP280;47622;47.726;3.298;2023-06-14T07:21:01;98837.91;;;33.06
61703;BMP280;47622;47.726;3.298;2023-06-14T07:23:27;98848.63;;;34.97
61703;BMP280;47622;47.726;3.298;2023-06-14T07:25:52;98858.09;;;35.97
61703;BMP280;47622;47.726;3.298;2023-06-14T07:28:19;98852.69;;;36.25
61703;BMP280;47622;47.726;3.298;2023-06-14T07:30:44;98851.00;;;37.00
61703;BMP280;47622;47.726;3.298;2023-06-14T07:33:10;98856.72;;;36.80
61703;BMP280;47622;47.726;3.298;2023-06-14T07:35:37;98859.94;;;37.06
61703;BMP280;47622;47.726;3.298;2023-06-14T07:38:03;98857.06;;;37.62
61703;BMP280;47622;47.726;3.298;2023-06-14T07:40:30;98864.59;;;37.33
61703;BMP280;47622;47.726;3.298;2023-06-14T07:42:55;98871.25;;;38.12
61703;BMP280;47622;47.726;3.298;2023-06-14T07:45:21;98874.63;;;38.29
61703;BMP280;47622;47.726;3.298;2023-06-14T07:47:46;98878.28;;;38.38
61703;BMP280;47622;47.726;3.298;2023-06-14T07:50:12;98875.06;;;38.33
61703;BMP280;47622;47.726;3.298;2023-06-14T07:52:39;98877.84;;;36.90
61703;BMP280;47622;47.726;3.298;2023-06-14T07:55:05;98874.13;;;36.88
61703;BMP280;47622;47.726;3.298;2023-06-14T07:57:30;98875.78;;;38.04
61703;BMP280;47622;47.726;3.298;2023-06-14T07:59:56;98875.03;;;38.45
61703;BMP280;47622;47.726;3.298;2023-06-14T08:02:22;98874.88;;;39.77
61703;BMP280;47622;47.726;3.298;2023-06-14T08:04:47;98884.00;;;39.48
61703;BMP280;47622;47.726;3.298;2023-06-14T08:07:14;98875.94;;;40.24
61703;BMP280;47622;47.726;3.298;2023-06-14T08:09:40;98866.53;;;38.02
61703;BMP280;47622;47.726;3.298;2023-06-14T08:12:06;98879.63;;;38.61
61703;BMP280;47622;47.726;3.298;2023-06-14T08:14:35;98885.59;;;39.19
61703;BMP280;47622;47.726;3.298;2023-06-14T08:17:02;98875.03;;;39.66
61703;BMP280;47622;47.726;3.298;2023-06-14T08:19:28;98867.94;;;38.55
61703;BMP280;47622;47.726;3.298;2023-06-14T08:21:53;98879.09;;;39.41
61703;BMP280;47622;47.726;3.298;2023-06-14T08:24:23;98880.84;;;40.32
61703;BMP280;47622;47.726;3.298;2023-06-14T08:26:54;98869.59;;;39.79
61703;BMP280;47622;47.726;3.298;2023-06-14T08:29:22;98875.50;;;40.20
61703;BMP280;47622;47.726;3.298;2023-06-14T08:31:48;98879.47;;;41.09
61703;BMP280;47622;47.726;3.298;2023-06-14T08:34:13;98882.28;;;40.33
61703;BMP280;47622;47.726;3.298;2023-06-14T08:36:39;98880.44;;;37.63
61703;BMP280;47622;47.726;3.298;2023-06-14T08:39:05;98879.06;;;37.17
61703;BMP280;47622;47.726;3.298;2023-06-14T08:41:30;98882.06;;;36.75
61703;BMP280;47622;47.726;3.298;2023-06-14T08:43:56;98886.44;;;38.13
61703;BMP280;47622;47.726;3.298;2023-06-14T08:46:25;98881.50;;;37.43
61703;BMP280;47622;47.726;3.298;2023-06-14T08:48:55;98886.53;;;36.44
61703;BMP280;47622;47.726;3.298;2023-06-14T08:51:22;98893.78;;;37.03
61703;BMP280;47622;47.726;3.298;2023-06-14T08:53:53;98901.72;;;37.18
61703;BMP280;47622;47.726;3.298;2023-06-14T08:56:25;98902.97;;;37.00
61703;BMP280;47622;47.726;3.298;2023-06-14T08:58:51;98898.81;;;35.47
61703;BMP280;47622;47.726;3.298;2023-06-14T09:01:18;98894.31;;;33.40
61703;BMP280;47622;47.726;3.298;2023-06-14T09:03:44;98897.75;;;33.90
61703;BMP280;47622;47.726;3.298;2023-06-14T09:06:11;98903.69;;;34.49
61703;BMP280;47622;47.726;3.298;2023-06-14T09:08:47;98903.41;;;34.99
61703;BMP280;47622;47.726;3.298;2023-06-14T09:11:17;98902.00;;;35.88
61703;BMP280;47622;47.726;3.298;2023-06-14T09:13:45;98897.53;;;35.43
61703;BMP280;47622;47.726;3.298;2023-06-14T09:16:11;98894.78;;;35.85
61703;BMP280;47622;47.726;3.298;2023-06-14T09:18:43;98906.88;;;34.74
61703;BMP280;47622;47.726;3.298;2023-06-14T09:21:11;98891.44;;;34.19
61703;BMP280;47622;47.726;3.298;2023-06-14T09:23:38;98893.41;;;33.98
61703;BMP280;47622;47.726;3.298;2023-06-14T09:26:19;98894.66;;;33.48
61703;BMP280;47622;47.726;3.298;2023-06-14T09:28:49;98895.84;;;33.12
61703;BMP280;47622;47.726;3.298;2023-06-14T09:31:16;98893.78;;;32.68
61703;BMP280;47622;47.726;3.298;2023-06-14T09:33:42;98898.91;;;32.75
61703;BMP280;47622;47.726;3.298;2023-06-14T09:36:15;98899.38;;;33.18
61703;BMP280;47622;47.726;3.298;2023-06-14T09:38:42;98905.28;;;33.31
61703;BMP280;47622;47.726;3.298;2023-06-14T09:41:07;98890.75;;;33.19
61703;BMP280;47622;47.726;3.298;2023-06-14T09:43:33;98900.97;;;34.09
61703;BMP280;47622;47.726;3.298;2023-06-14T09:46:03;98911.03;;;34.43
61703;BMP280;47622;47.726;3.298;2023-06-14T09:48:30;98906.41;;;34.49
61703;BMP280;47622;47.726;3.298;2023-06-14T09:50:57;98910.53;;;34.65
61703;BMP280;47622;47.726;3.298;2023-06-14T09:53:24;98913.56;;;34.27
61703;BMP280;47622;47.726;3.298;2023-06-14T09:55:52;98905.84;;;34.45
61703;BMP280;47622;47.726;3.298;2023-06-14T09:58:20;98911.34;;;34.51
61703;BMP280;47622;47.726;3.298;2023-06-14T10:00:47;98918.22;;;34.67
61703;BMP280;47622;47.726;3.298;2023-06-14T10:03:28;98915.84;;;34.80
61703;BMP280;47622;47.726;3.298;2023-06-14T10:05:55;98920.91;;;34.41
61703;BMP280;47622;47.726;3.298;2023-06-14T10:08:25;98912.03;;;33.50
61703;BMP280;47622;47.726;3.298;2023-06-14T10:10:53;98916.81;;;33.26
61703;BMP280;47622;47.726;3.298;2023-06-14T10:13:18;98916.63;;;34.14
61703;BMP280;47622;47.726;3.298;2023-06-14T10:15:52;98913.59;;;34.52
61703;BMP280;47622;47.726;3.298;2023-06-14T10:24:19;98906.75;;;32.73
61703;BMP280;47622;47.726;3.298;2023-06-14T10:26:53;98920.00;;;32.80
61703;BMP280;47622;47.726;3.298;2023-06-14T10:29:18;98918.09;;;33.74
61703;BMP280;47622;47.726;3.298;2023-06-14T10:31:49;98918.94;;;34.41
61703;BMP280;47622;47.726;3.298;2023-06-14T10:34:23;98908.75;;;34.88
61703;BMP280;47622;47.726;3.298;2023-06-14T10:37:04;98910.97;;;34.17
61703;BMP280;47622;47.726;3.298;2023-06-14T10:39:31;98908.31;;;34.23
61703;BMP280;47622;47.726;3.298;2023-06-14T10:42:04;98906.00;;;34.36
61703;BMP280;47622;47.726;3.298;2023-06-14T10:46:58;98897.78;;;33.41
61703;BMP280;47622;47.726;3.298;2023-06-14T10:49:43;98900.44;;;33.70
61703;BMP280;47622;47.726;3.298;2023-06-14T10:52:14;98909.13;;;34.09
61703;BMP280;47622;47.726;3.298;2023-06-14T10:57:25;98899.88;;;34.21
61703;BMP280;47622;47.726;3.298;2023-06-14T10:59:51;98906.47;;;34.81
61703;BMP280;47622;47.726;3.298;2023-06-14T11:04:52;98893.81;;;35.40
61703;BMP280;47622;47.726;3.298;2023-06-14T11:07:58;98899.72;;;34.50
61703;BMP280;47622;47.726;3.298;2023-06-14T11:10:37;98899.59;;;34.39
61703;BMP280;47622;47.726;3.298;2023-06-14T11:13:03;98894.16;;;34.39
61703;BMP280;47622;47.726;3.298;2023-06-14T11:15:34;98889.25;;;34.03
61703;BMP280;47622;47.726;3.298;2023-06-14T11:18:09;98889.81;;;33.87
61703;BMP280;47622;47.726;3.298;2023-06-14T11:20:36;98887.59;;;34.31
61703;BMP280;47622;47.726;3.298;2023-06-14T11:23:03;98888.13;;;34.35
61703;BMP280;47622;47.726;3.298;2023-06-14T11:25:29;98891.09;;;34.11
61703;BMP280;47622;47.726;3.298;2023-06-14T11:27:55;98890.59;;;33.93
61703;BMP280;47622;47.726;3.298;2023-06-14T11:30:22;98876.31;;;33.13
61703;BMP280;47622;47.726;3.298;2023-06-14T11:32:49;98886.22;;;33.60
61703;BMP280;47622;47.726;3.298;2023-06-14T11:35:16;98886.44;;;33.97
61703;BMP280;47622;47.726;3.298;2023-06-14T11:37:42;98891.06;;;33.56
61703;BMP280;47622;47.726;3.298;2023-06-14T11:40:09;98881.25;;;32.56
61703;BMP280;47622;47.726;3.298;2023-06-14T11:42:36;98884.66;;;32.42
61703;BMP280;47622;47.726;3.298;2023-06-14T11:45:03;98876.56;;;32.57
61703;BMP280;47622;47.726;3.298;2023-06-14T11:47:34;98878.34;;;31.88
61703;BMP280;47622;47.726;3.298;2023-06-14T11:50:03;98869.97;;;33.02
61703;BMP280;47622;47.726;3.298;2023-06-14T11:52:28;98876.53;;;33.59
61703;BMP280;47622;47.726;3.298;2023-06-14T11:54:54;98862.38;;;33.55
61703;BMP280;47622;47.726;3.298;2023-06-14T11:57:20;98870.44;;;34.05
61703;BMP280;47622;47.726;3.298;2023-06-14T11:59:46;98860.75;;;33.43
61703;BMP280;47622;47.726;3.298;2023-06-14T12:02:16;98867.38;;;33.42
61703;BMP280;47622;47.726;3.298;2023-06-14T12:04:48;98859.03;;;33.31
61703;BMP280;47622;47.726;3.298;2023-06-14T12:07:15;98864.69;;;33.13
61703;BMP280;47622;47.726;3.298;2023-06-14T12:10:08;98865.00;;;32.47
61703;BMP280;47622;47.726;3.298;2023-06-14T12:12:37;98864.13;;;33.23
61703;BMP280;47622;47.726;3.298;2023-06-14T12:15:04;98872.19;;;33.67
61703;BMP280;47622;47.726;3.298;2023-06-14T12:17:35;98855.72;;;33.07
61703;BMP280;47622;47.726;3.298;2023-06-14T12:20:12;98853.22;;;32.94
61703;BMP280;47622;47.726;3.298;2023-06-14T12:23:03;98863.47;;;33.63
61703;BMP280;47622;47.726;3.298;2023-06-14T12:25:34;98857.56;;;33.30
61703;BMP280;47622;47.726;3.298;2023-06-14T12:28:08;98850.41;;;32.74
61703;BMP280;47622;47.726;3.298;2023-06-14T12:30:36;98859.81;;;32.73
61703;BMP280;47622;47.726;3.298;2023-06-14T12:33:03;98870.88;;;33.13
61703;BMP280;47622;47.726;3.298;2023-06-14T12:35:28;98861.03;;;32.86
61703;BMP280;47622;47.726;3.298;2023-06-14T12:37:54;98866.22;;;32.84
61703;BMP280;47622;47.726;3.298;2023-06-14T12:40:19;98867.19;;;33.31
61703;BMP280;47622;47.726;3.298;2023-06-14T12:42:45;98859.97;;;33.28
61703;BMP280;47622;47.726;3.298;2023-06-14T12:45:15;98869.00;;;33.34
61703;BMP280;47622;47.726;3.298;2023-06-14T12:47:41;98873.84;;;34.00
61703;BMP280;47622;47.726;3.298;2023-06-14T12:50:07;98869.72;;;34.04
61703;BMP280;47622;47.726;3.298;2023-06-14T12:52:33;98866.94;;;33.29
61703;BMP280;47622;47.726;3.298;2023-06-14T12:55:03;98861.47;;;32.56
61703;BMP280;47622;47.726;3.298;2023-06-14T12:57:29;98858.81;;;32.46
61703;BMP280;47622;47.726;3.298;2023-06-14T12:59:54;98874.16;;;32.35
61703;BMP280;47622;47.726;3.298;2023-06-14T13:02:21;98869.28;;;32.77
61703;BMP280;47622;47.726;3.298;2023-06-14T13:04:50;98871.19;;;33.01
61703;BMP280;47622;47.726;3.298;2023-06-14T13:07:16;98865.78;;;33.21
61703;BMP280;47622;47.726;3.298;2023-06-14T13:09:42;98864.31;;;33.20
61703;BMP280;47622;47.726;3.298;2023-06-14T13:12:10;98873.97;;;32.92
61703;BMP280;47622;47.726;3.298;2023-06-14T13:14:36;98865.50;;;32.22
61703;BMP280;47622;47.726;3.298;2023-06-14T13:17:02;98861.81;;;31.77
61703;BMP280;47622;47.726;3.298;2023-06-14T13:19:28;98866.03;;;31.78
61703;BMP280;47622;47.726;3.298;2023-06-14T13:21:55;98870.94;;;31.98
61703;BMP280;47622;47.726;3.298;2023-06-14T13:24:20;98867.03;;;31.57
61703;BMP280;47622;47.726;3.298;2023-06-14T13:26:46;98861.66;;;32.04
61703;BMP280;47622;47.726;3.298;2023-06-14T13:29:11;98869.28;;;32.39
61703;BMP280;47622;47.726;3.298;2023-06-14T13:31:37;98867.22;;;31.86
61703;BMP280;47622;47.726;3.298;2023-06-14T13:34:02;98867.09;;;32.04
61703;BMP280;47622;47.726;3.298;2023-06-14T13:36:28;98875.66;;;32.12
61703;BMP280;47622;47.726;3.298;2023-06-14T13:38:55;98873.66;;;31.98
61703;BMP280;47622;47.726;3.298;2023-06-14T13:41:21;98882.13;;;32.15
61703;BMP280;47622;47.726;3.298;2023-06-14T13:43:46;98876.38;;;32.22
61703;BMP280;47622;47.726;3.298;2023-06-14T13:46:12;98880.91;;;31.92
61703;BMP280;47622;47.726;3.298;2023-06-14T13:48:37;98882.06;;;32.24
61703;BMP280;47622;47.726;3.298;2023-06-14T13:51:04;98874.44;;;32.13
61703;BMP280;47622;47.726;3.298;2023-06-14T13:53:30;98875.50;;;31.50
61703;BMP280;47622;47.726;3.298;2023-06-14T13:55:56;98881.28;;;31.34
61703;BMP280;47622;47.726;3.298;2023-06-14T13:58:21;98875.31;;;30.75
61703;BMP280;47622;47.726;3.298;2023-06-14T14:00:48;98873.22;;;31.06
61703;BMP280;47622;47.726;3.298;2023-06-14T14:03:15;98872.41;;;31.75
61703;BMP280;47622;47.726;3.298;2023-06-14T14:05:41;98869.22;;;31.44
61703;BMP280;47622;47.726;3.298;2023-06-14T14:08:06;98871.56;;;31.60
61703;BMP280;47622;47.726;3.298;2023-06-14T14:10:33;98874.16;;;31.54
61703;BMP280;47622;47.726;3.298;2023-06-14T14:12:59;98876.47;;;31.29
61703;BMP280;47622;47.726;3.298;2023-06-14T14:15:25;98873.66;;;31.56
61703;BMP280;47622;47.726;3.298;2023-06-14T14:17:51;98869.03;;;32.13
61703;BMP280;47622;47.726;3.298;2023-06-14T14:20:16;98854.94;;;32.00
61703;BMP280;47622;47.726;3.298;2023-06-14T14:22:42;98866.13;;;31.93
61703;BMP280;47622;47.726;3.298;2023-06-14T14:25:09;98860.59;;;31.54